sensor_id;sensor_type;location;lat;lon;timestamp;P1;durP1;ratioP1;P2;durP2;ratioP2
73266;SDS011;61495;53.400;7.608;2023-04-15T00:00:59;5.50;;;3.10;;
73266;SDS011;61495;53.400;7.608;2023-04-15T00:03:25;5.60;;;2.85;;
73266;SDS011;61495;53.400;7.608;2023-04-15T00:05:52;5.28;;;2.78;;
73266;SDS011;61495;53.400;7.608;2023-04-15T00:08:17;5.88;;;2.75;;
73266;SDS011;61495;53.400;7.608;2023-04-15T00:10:43;6.57;;;3.17;;
73266;SDS011;61495;53.400;7.608;2023-04-15T00:13:10;6.82;;;3.42;;
73266;SDS011;61495;53.400;7.608;2023-04-15T00:15:36;6.07;;;3.13;;
73266;SDS011;61495;53.400;7.608;2023-04-15T00:18:01;8.25;;;3.33;;
73266;SDS011;61495;53.400;7.608;2023-04-15T00:20:27;6.65;;;2.72;;
73266;SDS011;61495;53.400;7.608;2023-04-15T00:22:52;7.53;;;3.60;;
73266;SDS011;61495;53.400;7.608;2023-04-15T00:25:17;5.93;;;3.20;;
73266;SDS011;61495;53.400;7.608;2023-04-15T00:27:43;7.65;;;3.17;;
73266;SDS011;61495;53.400;7.608;2023-04-15T00:30:09;5.97;;;3.10;;
73266;SDS011;61495;53.400;7.608;2023-04-15T00:32:35;6.47;;;3.08;;
73266;SDS011;61495;53.400;7.608;2023-04-15T00:35:01;6.68;;;3.15;;
73266;SDS011;61495;53.400;7.608;2023-04-15T00:37:27;6.57;;;3.03;;
73266;SDS011;61495;53.400;7.608;2023-04-15T00:39:53;5.88;;;3.10;;
73266;SDS011;61495;53.400;7.608;2023-04-15T00:42:18;7.18;;;3.17;;
73266;SDS011;61495;53.400;7.608;2023-04-15T00:44:45;6.78;;;3.33;;
73266;SDS011;61495;53.400;7.608;2023-04-15T00:47:11;6.32;;;3.28;;
73266;SDS011;61495;53.400;7.608;2023-04-15T00:49:37;6.75;;;3.25;;
73266;SDS011;61495;53.400;7.608;2023-04-15T00:52:03;6.88;;;3.35;;
73266;SDS011;61495;53.400;7.608;2023-04-15T00:54:28;7.95;;;3.55;;
73266;SDS011;61495;53.400;7.608;2023-04-15T00:56:53;7.95;;;3.50;;
73266;SDS011;61495;53.400;7.608;2023-04-15T00:59:19;6.63;;;3.35;;
73266;SDS011;61495;53.400;7.608;2023-04-15T01:01:45;6.90;;;3.33;;
73266;SDS011;61495;53.400;7.608;2023-04-15T01:04:11;6.95;;;3.83;;
73266;SDS011;61495;53.400;7.608;2023-04-15T01:06:37;7.93;;;3.72;;
73266;SDS011;61495;53.400;7.608;2023-04-15T01:09:02;8.02;;;4.07;;
73266;SDS011;61495;53.400;7.608;2023-04-15T01:11:27;7.60;;;3.75;;
73266;SDS011;61495;53.400;7.608;2023-04-15T01:13:54;7.68;;;3.92;;
73266;SDS011;61495;53.400;7.608;2023-04-15T01:16:22;9.30;;;4.03;;
73266;SDS011;61495;53.400;7.608;2023-04-15T01:18:48;8.27;;;4.40;;
73266;SDS011;61495;53.400;7.608;2023-04-15T01:21:13;8.55;;;4.28;;
73266;SDS011;61495;53.400;7.608;2023-04-15T01:23:38;11.35;;;4.70;;
73266;SDS011;61495;53.400;7.608;2023-04-15T01:26:05;8.60;;;5.50;;
73266;SDS011;61495;53.400;7.608;2023-04-15T01:28:32;12.20;;;5.15;;
73266;SDS011;61495;53.400;7.608;2023-04-15T01:31:10;12.90;;;5.80;;
73266;SDS011;61495;53.400;7.608;2023-04-15T01:33:38;8.65;;;4.70;;
73266;SDS011;61495;53.400;7.608;2023-04-15T01:36:07;11.32;;;4.82;;
73266;SDS011;61495;53.400;7.608;2023-04-15T01:38:42;10.52;;;5.55;;
73266;SDS011;61495;53.400;7.608;2023-04-15T01:41:24;11.55;;;5.10;;
73266;SDS011;61495;53.400;7.608;2023-04-15T01:44:07;11.98;;;5.80;;
73266;SDS011;61495;53.400;7.608;2023-04-15T01:46:43;10.20;;;4.88;;
73266;SDS011;61495;53.400;7.608;2023-04-15T01:49:20;12.15;;;5.72;;
73266;SDS011;61495;53.400;7.608;2023-04-15T01:51:56;14.02;;;5.75;;
73266;SDS011;61495;53.400;7.608;2023-04-15T01:54:24;12.27;;;5.45;;
73266;SDS011;61495;53.400;7.608;2023-04-15T01:56:51;11.07;;;4.97;;
73266;SDS011;61495;53.400;7.608;2023-04-15T01:59:17;10.32;;;6.28;;
73266;SDS011;61495;53.400;7.608;2023-04-15T02:01:42;13.25;;;6.05;;
73266;SDS011;61495;53.400;7.608;2023-04-15T02:04:09;10.75;;;5.88;;
73266;SDS011;61495;53.400;7.608;2023-04-15T02:06:40;12.40;;;6.80;;
73266;SDS011;61495;53.400;7.608;2023-04-15T02:09:06;11.05;;;6.78;;
73266;SDS011;61495;53.400;7.608;2023-04-15T02:11:32;12.40;;;5.85;;
73266;SDS011;61495;53.400;7.608;2023-04-15T02:14:08;11.52;;;5.90;;
73266;SDS011;61495;53.400;7.608;2023-04-15T02:16:34;11.48;;;5.93;;
73266;SDS011;61495;53.400;7.608;2023-04-15T02:18:59;11.05;;;5.50;;
73266;SDS011;61495;53.400;7.608;2023-04-15T02:21:25;10.77;;;5.65;;
73266;SDS011;61495;53.400;7.608;2023-04-15T02:23:51;11.43;;;5.45;;
73266;SDS011;61495;53.400;7.608;2023-04-15T02:26:18;10.80;;;5.93;;
73266;SDS011;61495;53.400;7.608;2023-04-15T02:28:44;11.85;;;7.03;;
73266;SDS011;61495;53.400;7.608;2023-04-15T02:31:10;10.60;;;5.45;;
73266;SDS011;61495;53.400;7.608;2023-04-15T02:33:36;10.00;;;4.82;;
73266;SDS011;61495;53.400;7.608;2023-04-15T02:36:02;11.88;;;5.75;;
73266;SDS011;61495;53.400;7.608;2023-04-15T02:38:27;9.80;;;5.50;;
73266;SDS011;61495;53.400;7.608;2023-04-15T02:40:53;10.43;;;5.22;;
73266;SDS011;61495;53.400;7.608;2023-04-15T02:43:21;10.23;;;5.55;;
73266;SDS011;61495;53.400;7.608;2023-04-15T02:45:47;11.93;;;5.63;;
73266;SDS011;61495;53.400;7.608;2023-04-15T02:48:13;13.00;;;5.90;;
73266;SDS011;61495;53.400;7.608;2023-04-15T02:50:38;10.57;;;5.45;;
73266;SDS011;61495;53.400;7.608;2023-04-15T02:53:05;10.50;;;5.40;;
73266;SDS011;61495;53.400;7.608;2023-04-15T02:55:30;10.77;;;5.78;;
73266;SDS011;61495;53.400;7.608;2023-04-15T02:57:56;14.20;;;5.88;;
73266;SDS011;61495;53.400;7.608;2023-04-15T03:00:24;12.73;;;5.63;;
73266;SDS011;61495;53.400;7.608;2023-04-15T03:02:50;10.88;;;5.85;;
73266;SDS011;61495;53.400;7.608;2023-04-15T03:05:20;10.27;;;5.55;;
73266;SDS011;61495;53.400;7.608;2023-04-15T03:07:48;12.50;;;6.78;;
73266;SDS011;61495;53.400;7.608;2023-04-15T03:10:14;9.98;;;5.30;;
73266;SDS011;61495;53.400;7.608;2023-04-15T03:12:48;9.32;;;5.20;;
73266;SDS011;61495;53.400;7.608;2023-04-15T03:15:14;9.85;;;4.93;;
73266;SDS011;61495;53.400;7.608;2023-04-15T03:17:39;10.60;;;5.22;;
73266;SDS011;61495;53.400;7.608;2023-04-15T03:20:05;11.82;;;6.05;;
73266;SDS011;61495;53.400;7.608;2023-04-15T03:22:31;10.02;;;5.47;;
73266;SDS011;61495;53.400;7.608;2023-04-15T03:24:57;10.13;;;4.97;;
73266;SDS011;61495;53.400;7.608;2023-04-15T03:27:22;9.00;;;4.93;;
73266;SDS011;61495;53.400;7.608;2023-04-15T03:29:48;13.30;;;5.13;;
73266;SDS011;61495;53.400;7.608;2023-04-15T03:32:13;10.10;;;4.80;;
73266;SDS011;61495;53.400;7.608;2023-04-15T03:34:39;9.30;;;5.25;;
73266;SDS011;61495;53.400;7.608;2023-04-15T03:37:06;9.30;;;5.07;;
73266;SDS011;61495;53.400;7.608;2023-04-15T03:39:31;9.15;;;5.25;;
73266;SDS011;61495;53.400;7.608;2023-04-15T03:41:57;11.57;;;4.93;;
73266;SDS011;61495;53.400;7.608;2023-04-15T03:44:28;12.80;;;5.53;;
73266;SDS011;61495;53.400;7.608;2023-04-15T03:46:54;11.38;;;5.20;;
73266;SDS011;61495;53.400;7.608;2023-04-15T03:49:20;13.93;;;5.35;;
73266;SDS011;61495;53.400;7.608;2023-04-15T03:51:46;10.35;;;5.07;;
73266;SDS011;61495;53.400;7.608;2023-04-15T03:54:12;12.00;;;5.60;;
73266;SDS011;61495;53.400;7.608;2023-04-15T03:56:39;11.23;;;5.22;;
73266;SDS011;61495;53.400;7.608;2023-04-15T03:59:04;11.18;;;5.75;;
73266;SDS011;61495;53.400;7.608;2023-04-15T04:01:30;10.55;;;5.60;;
73266;SDS011;61495;53.400;7.608;2023-04-15T04:03:55;12.52;;;5.80;;
73266;SDS011;61495;53.400;7.608;2023-04-15T04:06:20;9.98;;;4.95;;
73266;SDS011;61495;53.400;7.608;2023-04-15T04:08:46;10.15;;;5.65;;
73266;SDS011;61495;53.400;7.608;2023-04-15T04:11:11;11.27;;;5.53;;
73266;SDS011;61495;53.400;7.608;2023-04-15T04:13:42;10.43;;;4.97;;
73266;SDS011;61495;53.400;7.608;2023-04-15T04:16:07;10.95;;;5.32;;
73266;SDS011;61495;53.400;7.608;2023-04-15T04:18:33;10.10;;;5.63;;
73266;SDS011;61495;53.400;7.608;2023-04-15T04:20:58;12.10;;;5.38;;
73266;SDS011;61495;53.400;7.608;2023-04-15T04:23:24;13.20;;;5.40;;
73266;SDS011;61495;53.400;7.608;2023-04-15T04:25:50;10.57;;;4.90;;
73266;SDS011;61495;53.400;7.608;2023-04-15T04:28:16;9.07;;;4.78;;
73266;SDS011;61495;53.400;7.608;2023-04-15T04:30:42;11.43;;;5.78;;
73266;SDS011;61495;53.400;7.608;2023-04-15T04:33:07;11.18;;;5.43;;
73266;SDS011;61495;53.400;7.608;2023-04-15T04:35:32;11.00;;;4.68;;
73266;SDS011;61495;53.400;7.608;2023-04-15T04:38:01;9.60;;;5.05;;
73266;SDS011;61495;53.400;7.608;2023-04-15T04:40:27;8.25;;;4.47;;
73266;SDS011;61495;53.400;7.608;2023-04-15T04:42:52;10.32;;;5.32;;
73266;SDS011;61495;53.400;7.608;2023-04-15T04:45:18;10.88;;;5.03;;
73266;SDS011;61495;53.400;7.608;2023-04-15T04:47:44;11.70;;;5.38;;
73266;SDS011;61495;53.400;7.608;2023-04-15T04:50:09;15.25;;;5.72;;
73266;SDS011;61495;53.400;7.608;2023-04-15T04:52:35;11.88;;;4.88;;
73266;SDS011;61495;53.400;7.608;2023-04-15T04:55:00;10.30;;;5.25;;
73266;SDS011;61495;53.400;7.608;2023-04-15T04:57:26;13.20;;;5.32;;
73266;SDS011;61495;53.400;7.608;2023-04-15T04:59:51;11.25;;;5.07;;
73266;SDS011;61495;53.400;7.608;2023-04-15T05:02:16;10.45;;;4.95;;
73266;SDS011;61495;53.400;7.608;2023-04-15T05:04:42;9.57;;;5.22;;
73266;SDS011;61495;53.400;7.608;2023-04-15T05:07:07;14.48;;;5.43;;
73266;SDS011;61495;53.400;7.608;2023-04-15T05:09:32;9.32;;;5.20;;
73266;SDS011;61495;53.400;7.608;2023-04-15T05:12:00;11.90;;;6.15;;
73266;SDS011;61495;53.400;7.608;2023-04-15T05:14:30;9.35;;;4.95;;
73266;SDS011;61495;53.400;7.608;2023-04-15T05:16:56;12.35;;;5.47;;
73266;SDS011;61495;53.400;7.608;2023-04-15T05:19:21;13.73;;;5.97;;
73266;SDS011;61495;53.400;7.608;2023-04-15T05:21:47;11.80;;;6.35;;
73266;SDS011;61495;53.400;7.608;2023-04-15T05:24:12;14.90;;;5.65;;
73266;SDS011;61495;53.400;7.608;2023-04-15T05:26:37;11.35;;;5.10;;
73266;SDS011;61495;53.400;7.608;2023-04-15T05:29:03;13.85;;;5.57;;
73266;SDS011;61495;53.400;7.608;2023-04-15T05:31:28;11.27;;;5.15;;
73266;SDS011;61495;53.400;7.608;2023-04-15T05:33:53;12.32;;;5.63;;
73266;SDS011;61495;53.400;7.608;2023-04-15T05:36:19;11.88;;;5.90;;
73266;SDS011;61495;53.400;7.608;2023-04-15T05:38:45;11.70;;;5.43;;
73266;SDS011;61495;53.400;7.608;2023-04-15T05:41:10;11.98;;;5.55;;
73266;SDS011;61495;53.400;7.608;2023-04-15T05:43:36;11.25;;;4.75;;
73266;SDS011;61495;53.400;7.608;2023-04-15T05:46:01;9.73;;;5.10;;
73266;SDS011;61495;53.400;7.608;2023-04-15T05:48:26;11.15;;;5.22;;
73266;SDS011;61495;53.400;7.608;2023-04-15T05:50:52;11.48;;;5.28;;
73266;SDS011;61495;53.400;7.608;2023-04-15T05:53:17;12.55;;;6.45;;
73266;SDS011;61495;53.400;7.608;2023-04-15T05:55:43;9.38;;;5.05;;
73266;SDS011;61495;53.400;7.608;2023-04-15T05:58:08;11.07;;;5.22;;
73266;SDS011;61495;53.400;7.608;2023-04-15T06:00:33;9.98;;;4.70;;
73266;SDS011;61495;53.400;7.608;2023-04-15T06:02:59;11.20;;;5.30;;
73266;SDS011;61495;53.400;7.608;2023-04-15T06:05:24;8.90;;;4.50;;
73266;SDS011;61495;53.400;7.608;2023-04-15T06:07:50;10.55;;;4.90;;
73266;SDS011;61495;53.400;7.608;2023-04-15T06:10:16;9.07;;;4.53;;
73266;SDS011;61495;53.400;7.608;2023-04-15T06:12:42;10.73;;;5.07;;
73266;SDS011;61495;53.400;7.608;2023-04-15T06:15:08;8.95;;;4.40;;
73266;SDS011;61495;53.400;7.608;2023-04-15T06:17:34;9.07;;;4.20;;
73266;SDS011;61495;53.400;7.608;2023-04-15T06:20:00;9.98;;;4.88;;
73266;SDS011;61495;53.400;7.608;2023-04-15T06:22:25;9.98;;;4.43;;
73266;SDS011;61495;53.400;7.608;2023-04-15T06:24:51;10.05;;;4.43;;
73266;SDS011;61495;53.400;7.608;2023-04-15T06:27:17;8.50;;;4.63;;
73266;SDS011;61495;53.400;7.608;2023-04-15T06:29:42;11.13;;;4.05;;
73266;SDS011;61495;53.400;7.608;2023-04-15T06:32:08;9.38;;;4.35;;
73266;SDS011;61495;53.400;7.608;2023-04-15T06:34:33;13.55;;;5.38;;
73266;SDS011;61495;53.400;7.608;2023-04-15T06:36:59;10.25;;;4.55;;
73266;SDS011;61495;53.400;7.608;2023-04-15T06:39:25;7.30;;;4.15;;
73266;SDS011;61495;53.400;7.608;2023-04-15T06:41:51;8.90;;;4.28;;
73266;SDS011;61495;53.400;7.608;2023-04-15T06:44:16;9.30;;;4.25;;
73266;SDS011;61495;53.400;7.608;2023-04-15T06:46:42;8.02;;;4.32;;
73266;SDS011;61495;53.400;7.608;2023-04-15T06:49:08;8.88;;;3.95;;
73266;SDS011;61495;53.400;7.608;2023-04-15T06:51:34;9.85;;;4.47;;
73266;SDS011;61495;53.400;7.608;2023-04-15T06:54:00;9.90;;;4.00;;
73266;SDS011;61495;53.400;7.608;2023-04-15T06:56:26;8.80;;;4.25;;
73266;SDS011;61495;53.400;7.608;2023-04-15T06:58:52;9.32;;;3.72;;
73266;SDS011;61495;53.400;7.608;2023-04-15T07:01:17;9.52;;;4.10;;
73266;SDS011;61495;53.400;7.608;2023-04-15T07:03:43;8.75;;;4.22;;
73266;SDS011;61495;53.400;7.608;2023-04-15T07:06:08;7.70;;;3.63;;
73266;SDS011;61495;53.400;7.608;2023-04-15T07:08:34;7.38;;;3.17;;
73266;SDS011;61495;53.400;7.608;2023-04-15T07:11:00;7.47;;;3.60;;
73266;SDS011;61495;53.400;7.608;2023-04-15T07:13:29;8.30;;;3.85;;
73266;SDS011;61495;53.400;7.608;2023-04-15T07:15:55;6.55;;;3.55;;
73266;SDS011;61495;53.400;7.608;2023-04-15T07:18:20;7.70;;;3.38;;
73266;SDS011;61495;53.400;7.608;2023-04-15T07:20:46;5.90;;;3.00;;
73266;SDS011;61495;53.400;7.608;2023-04-15T07:23:12;8.50;;;3.38;;
73266;SDS011;61495;53.400;7.608;2023-04-15T07:25:37;11.90;;;3.97;;
73266;SDS011;61495;53.400;7.608;2023-04-15T07:28:02;9.52;;;3.83;;
73266;SDS011;61495;53.400;7.608;2023-04-15T07:30:28;9.57;;;3.95;;
73266;SDS011;61495;53.400;7.608;2023-04-15T07:32:53;7.78;;;3.83;;
73266;SDS011;61495;53.400;7.608;2023-04-15T07:35:19;6.47;;;3.05;;
73266;SDS011;61495;53.400;7.608;2023-04-15T07:37:45;8.13;;;3.88;;
73266;SDS011;61495;53.400;7.608;2023-04-15T07:40:11;6.28;;;3.25;;
73266;SDS011;61495;53.400;7.608;2023-04-15T07:42:38;11.40;;;3.65;;
73266;SDS011;61495;53.400;7.608;2023-04-15T07:45:04;8.45;;;3.17;;
73266;SDS011;61495;53.400;7.608;2023-04-15T07:47:30;10.60;;;3.28;;
73266;SDS011;61495;53.400;7.608;2023-04-15T07:49:56;7.50;;;3.42;;
73266;SDS011;61495;53.400;7.608;2023-04-15T07:52:21;7.32;;;3.22;;
73266;SDS011;61495;53.400;7.608;2023-04-15T07:54:46;6.63;;;2.97;;
73266;SDS011;61495;53.400;7.608;2023-04-15T07:57:12;8.27;;;3.42;;
73266;SDS011;61495;53.400;7.608;2023-04-15T07:59:37;9.90;;;4.10;;
73266;SDS011;61495;53.400;7.608;2023-04-15T08:02:02;6.82;;;3.40;;
73266;SDS011;61495;53.400;7.608;2023-04-15T08:04:28;7.57;;;3.38;;
73266;SDS011;61495;53.400;7.608;2023-04-15T08:06:53;6.80;;;3.30;;
73266;SDS011;61495;53.400;7.608;2023-04-15T08:09:19;6.35;;;3.35;;
73266;SDS011;61495;53.400;7.608;2023-04-15T08:11:45;6.00;;;2.75;;
73266;SDS011;61495;53.400;7.608;2023-04-15T08:14:13;6.43;;;2.35;;
73266;SDS011;61495;53.400;7.608;2023-04-15T08:16:38;5.55;;;3.42;;
73266;SDS011;61495;53.400;7.608;2023-04-15T08:19:03;5.90;;;3.40;;
73266;SDS011;61495;53.400;7.608;2023-04-15T08:21:29;5.70;;;2.63;;
73266;SDS011;61495;53.400;7.608;2023-04-15T08:23:55;5.40;;;3.22;;
73266;SDS011;61495;53.400;7.608;2023-04-15T08:26:21;5.00;;;2.33;;
73266;SDS011;61495;53.400;7.608;2023-04-15T08:28:46;7.63;;;3.45;;
73266;SDS011;61495;53.400;7.608;2023-04-15T08:31:13;5.60;;;2.65;;
73266;SDS011;61495;53.400;7.608;2023-04-15T08:33:40;5.90;;;2.42;;
73266;SDS011;61495;53.400;7.608;2023-04-15T08:36:06;6.18;;;2.80;;
73266;SDS011;61495;53.400;7.608;2023-04-15T08:38:31;6.32;;;2.30;;
73266;SDS011;61495;53.400;7.608;2023-04-15T08:40:57;7.93;;;2.72;;
73266;SDS011;61495;53.400;7.608;2023-04-15T08:43:27;6.45;;;2.80;;
73266;SDS011;61495;53.400;7.608;2023-04-15T08:45:56;7.20;;;3.13;;
73266;SDS011;61495;53.400;7.608;2023-04-15T08:48:24;8.40;;;3.00;;
73266;SDS011;61495;53.400;7.608;2023-04-15T08:50:53;6.65;;;2.95;;
73266;SDS011;61495;53.400;7.608;2023-04-15T08:53:19;7.18;;;2.58;;
73266;SDS011;61495;53.400;7.608;2023-04-15T08:55:45;6.70;;;2.97;;
73266;SDS011;61495;53.400;7.608;2023-04-15T08:58:16;7.43;;;3.13;;
73266;SDS011;61495;53.400;7.608;2023-04-15T09:00:43;5.65;;;2.80;;
73266;SDS011;61495;53.400;7.608;2023-04-15T09:03:09;7.22;;;2.53;;
73266;SDS011;61495;53.400;7.608;2023-04-15T09:05:36;6.15;;;2.88;;
73266;SDS011;61495;53.400;7.608;2023-04-15T09:08:01;7.82;;;3.78;;
73266;SDS011;61495;53.400;7.608;2023-04-15T09:10:28;5.32;;;2.58;;
73266;SDS011;61495;53.400;7.608;2023-04-15T09:12:54;6.20;;;2.35;;
73266;SDS011;61495;53.400;7.608;2023-04-15T09:15:20;6.55;;;2.75;;
73266;SDS011;61495;53.400;7.608;2023-04-15T09:17:46;7.00;;;2.72;;
73266;SDS011;61495;53.400;7.608;2023-04-15T09:20:13;4.93;;;2.60;;
73266;SDS011;61495;53.400;7.608;2023-04-15T09:22:40;6.68;;;2.47;;
73266;SDS011;61495;53.400;7.608;2023-04-15T09:27:55;6.13;;;2.60;;
73266;SDS011;61495;53.400;7.608;2023-04-15T09:30:26;4.65;;;2.78;;
73266;SDS011;61495;53.400;7.608;2023-04-15T09:32:59;5.40;;;1.92;;
73266;SDS011;61495;53.400;7.608;2023-04-15T09:35:26;4.80;;;2.05;;
73266;SDS011;61495;53.400;7.608;2023-04-15T09:37:52;4.88;;;2.15;;
73266;SDS011;61495;53.400;7.608;2023-04-15T09:43:01;5.50;;;2.17;;
73266;SDS011;61495;53.400;7.608;2023-04-15T09:45:29;4.93;;;2.15;;
73266;SDS011;61495;53.400;7.608;2023-04-15T09:47:55;3.95;;;2.25;;
73266;SDS011;61495;53.400;7.608;2023-04-15T09:50:22;5.40;;;2.63;;
73266;SDS011;61495;53.400;7.608;2023-04-15T09:52:52;4.68;;;2.00;;
73266;SDS011;61495;53.400;7.608;2023-04-15T09:55:17;6.15;;;1.75;;
73266;SDS011;61495;53.400;7.608;2023-04-15T09:57:43;5.03;;;1.85;;
73266;SDS011;61495;53.400;7.608;2023-04-15T10:00:11;7.38;;;2.25;;
73266;SDS011;61495;53.400;7.608;2023-04-15T10:02:38;6.70;;;1.92;;
73266;SDS011;61495;53.400;7.608;2023-04-15T10:05:05;5.07;;;2.05;;
73266;SDS011;61495;53.400;7.608;2023-04-15T10:07:32;6.05;;;2.08;;
73266;SDS011;61495;53.400;7.608;2023-04-15T10:09:59;5.75;;;1.88;;
73266;SDS011;61495;53.400;7.608;2023-04-15T10:12:29;8.82;;;2.60;;
73266;SDS011;61495;53.400;7.608;2023-04-15T10:14:57;6.32;;;2.08;;
73266;SDS011;61495;53.400;7.608;2023-04-15T10:17:25;4.85;;;1.90;;
73266;SDS011;61495;53.400;7.608;2023-04-15T10:19:57;6.32;;;1.90;;
73266;SDS011;61495;53.400;7.608;2023-04-15T10:22:25;4.82;;;1.60;;
73266;SDS011;61495;53.400;7.608;2023-04-15T10:24:52;3.70;;;1.70;;
73266;SDS011;61495;53.400;7.608;2023-04-15T10:27:17;3.47;;;1.52;;
73266;SDS011;61495;53.400;7.608;2023-04-15T10:29:44;5.57;;;1.70;;
73266;SDS011;61495;53.400;7.608;2023-04-15T10:32:10;5.47;;;1.92;;
73266;SDS011;61495;53.400;7.608;2023-04-15T10:34:37;5.65;;;1.88;;
73266;SDS011;61495;53.400;7.608;2023-04-15T10:37:04;7.72;;;2.42;;
73266;SDS011;61495;53.400;7.608;2023-04-15T10:47:21;5.68;;;2.20;;
73266;SDS011;61495;53.400;7.608;2023-04-15T10:49:47;5.57;;;1.90;;
73266;SDS011;61495;53.400;7.608;2023-04-15T10:52:14;5.85;;;2.00;;
73266;SDS011;61495;53.400;7.608;2023-04-15T10:54:41;6.95;;;2.05;;
73266;SDS011;61495;53.400;7.608;2023-04-15T10:57:12;5.15;;;1.52;;
73266;SDS011;61495;53.400;7.608;2023-04-15T10:59:59;5.32;;;1.50;;
73266;SDS011;61495;53.400;7.608;2023-04-15T11:05:17;6.18;;;1.90;;
73266;SDS011;61495;53.400;7.608;2023-04-15T11:12:42;3.30;;;1.77;;
73266;SDS011;61495;53.400;7.608;2023-04-15T11:17:57;53.50;;;8.05;;
73266;SDS011;61495;53.400;7.608;2023-04-15T11:20:24;89.10;;;27.85;;
73266;SDS011;61495;53.400;7.608;2023-04-15T11:22:51;25.30;;;8.77;;
73266;SDS011;61495;53.400;7.608;2023-04-15T11:25:28;7.72;;;3.65;;
73266;SDS011;61495;53.400;7.608;2023-04-15T11:27:58;13.52;;;3.17;;
73266;SDS011;61495;53.400;7.608;2023-04-15T11:30:26;39.90;;;6.70;;
73266;SDS011;61495;53.400;7.608;2023-04-15T11:32:57;64.60;;;6.75;;
73266;SDS011;61495;53.400;7.608;2023-04-15T11:35:28;17.00;;;2.42;;
73266;SDS011;61495;53.400;7.608;2023-04-15T11:37:54;60.15;;;8.63;;
73266;SDS011;61495;53.400;7.608;2023-04-15T11:40:28;158.65;;;16.70;;
73266;SDS011;61495;53.400;7.608;2023-04-15T11:45:33;8.90;;;2.13;;
73266;SDS011;61495;53.400;7.608;2023-04-15T11:48:09;7.82;;;1.88;;
73266;SDS011;61495;53.400;7.608;2023-04-15T11:50:36;6.28;;;1.60;;
73266;SDS011;61495;53.400;7.608;2023-04-15T11:53:06;3.50;;;1.50;;
73266;SDS011;61495;53.400;7.608;2023-04-15T11:55:43;4.00;;;1.90;;
73266;SDS011;61495;53.400;7.608;2023-04-15T11:58:16;4.85;;;1.60;;
73266;SDS011;61495;53.400;7.608;2023-04-15T12:03:18;3.65;;;1.55;;
73266;SDS011;61495;53.400;7.608;2023-04-15T12:06:04;3.17;;;1.40;;
73266;SDS011;61495;53.400;7.608;2023-04-15T12:14:03;4.15;;;1.27;;
73266;SDS011;61495;53.400;7.608;2023-04-15T12:16:32;4.28;;;1.50;;
73266;SDS011;61495;53.400;7.608;2023-04-15T12:18:59;5.20;;;1.63;;
73266;SDS011;61495;53.400;7.608;2023-04-15T12:21:32;6.47;;;1.90;;
73266;SDS011;61495;53.400;7.608;2023-04-15T12:24:01;5.72;;;1.52;;
73266;SDS011;61495;53.400;7.608;2023-04-15T12:26:33;3.95;;;1.77;;
73266;SDS011;61495;53.400;7.608;2023-04-15T12:29:03;7.10;;;2.40;;
73266;SDS011;61495;53.400;7.608;2023-04-15T12:31:30;5.72;;;1.75;;
73266;SDS011;61495;53.400;7.608;2023-04-15T12:33:57;4.18;;;1.65;;
73266;SDS011;61495;53.400;7.608;2023-04-15T12:36:23;5.50;;;2.03;;
73266;SDS011;61495;53.400;7.608;2023-04-15T12:38:49;4.15;;;1.35;;
73266;SDS011;61495;53.400;7.608;2023-04-15T12:41:14;5.82;;;1.55;;
73266;SDS011;61495;53.400;7.608;2023-04-15T12:43:49;7.05;;;2.17;;
73266;SDS011;61495;53.400;7.608;2023-04-15T12:46:15;6.50;;;2.15;;
73266;SDS011;61495;53.400;7.608;2023-04-15T12:48:41;6.05;;;1.73;;
73266;SDS011;61495;53.400;7.608;2023-04-15T12:51:06;6.90;;;1.80;;
73266;SDS011;61495;53.400;7.608;2023-04-15T12:53:32;5.03;;;1.55;;
73266;SDS011;61495;53.400;7.608;2023-04-15T12:55:57;6.65;;;1.85;;
73266;SDS011;61495;53.400;7.608;2023-04-15T12:58:22;3.95;;;1.65;;
73266;SDS011;61495;53.400;7.608;2023-04-15T13:00:48;3.67;;;1.42;;
73266;SDS011;61495;53.400;7.608;2023-04-15T13:03:14;4.40;;;1.33;;
73266;SDS011;61495;53.400;7.608;2023-04-15T13:05:40;3.67;;;1.35;;
73266;SDS011;61495;53.400;7.608;2023-04-15T13:08:06;4.68;;;2.05;;
73266;SDS011;61495;53.400;7.608;2023-04-15T13:10:31;5.65;;;1.40;;
73266;SDS011;61495;53.400;7.608;2023-04-15T13:12:58;3.35;;;1.58;;
73266;SDS011;61495;53.400;7.608;2023-04-15T13:15:23;3.47;;;1.38;;
73266;SDS011;61495;53.400;7.608;2023-04-15T13:17:49;8.70;;;2.80;;
73266;SDS011;61495;53.400;7.608;2023-04-15T13:20:15;4.50;;;1.83;;
73266;SDS011;61495;53.400;7.608;2023-04-15T13:22:41;5.40;;;1.75;;
73266;SDS011;61495;53.400;7.608;2023-04-15T13:25:06;4.30;;;1.63;;
73266;SDS011;61495;53.400;7.608;2023-04-15T13:27:33;3.72;;;2.22;;
73266;SDS011;61495;53.400;7.608;2023-04-15T13:29:58;5.85;;;1.73;;
73266;SDS011;61495;53.400;7.608;2023-04-15T13:32:24;5.72;;;1.95;;
73266;SDS011;61495;53.400;7.608;2023-04-15T13:34:49;7.18;;;1.80;;
73266;SDS011;61495;53.400;7.608;2023-04-15T13:37:15;5.18;;;1.90;;
73266;SDS011;61495;53.400;7.608;2023-04-15T13:39:41;4.80;;;1.52;;
73266;SDS011;61495;53.400;7.608;2023-04-15T13:42:06;4.45;;;2.03;;
73266;SDS011;61495;53.400;7.608;2023-04-15T13:44:48;9.00;;;1.88;;
73266;SDS011;61495;53.400;7.608;2023-04-15T13:47:14;7.55;;;2.05;;
73266;SDS011;61495;53.400;7.608;2023-04-15T13:49:40;6.15;;;2.20;;
73266;SDS011;61495;53.400;7.608;2023-04-15T13:52:05;9.00;;;2.80;;
73266;SDS011;61495;53.400;7.608;2023-04-15T13:54:31;6.43;;;2.47;;
73266;SDS011;61495;53.400;7.608;2023-04-15T13:56:56;8.60;;;3.17;;
73266;SDS011;61495;53.400;7.608;2023-04-15T13:59:22;11.25;;;3.00;;
73266;SDS011;61495;53.400;7.608;2023-04-15T14:01:47;7.93;;;2.88;;
73266;SDS011;61495;53.400;7.608;2023-04-15T14:04:13;10.93;;;4.70;;
73266;SDS011;61495;53.400;7.608;2023-04-15T14:06:38;8.30;;;3.22;;
73266;SDS011;61495;53.400;7.608;2023-04-15T14:09:04;10.57;;;3.42;;
73266;SDS011;61495;53.400;7.608;2023-04-15T14:11:29;10.13;;;4.47;;
73266;SDS011;61495;53.400;7.608;2023-04-15T14:14:00;12.48;;;4.47;;
73266;SDS011;61495;53.400;7.608;2023-04-15T14:16:25;13.32;;;4.65;;
73266;SDS011;61495;53.400;7.608;2023-04-15T14:18:51;13.35;;;4.00;;
73266;SDS011;61495;53.400;7.608;2023-04-15T14:21:17;12.80;;;4.43;;
73266;SDS011;61495;53.400;7.608;2023-04-15T14:23:42;15.30;;;4.75;;
73266;SDS011;61495;53.400;7.608;2023-04-15T14:26:08;12.32;;;5.43;;
73266;SDS011;61495;53.400;7.608;2023-04-15T14:28:33;12.77;;;4.97;;
73266;SDS011;61495;53.400;7.608;2023-04-15T14:30:59;14.10;;;5.55;;
73266;SDS011;61495;53.400;7.608;2023-04-15T14:33:25;14.02;;;5.43;;
73266;SDS011;61495;53.400;7.608;2023-04-15T14:35:50;16.80;;;6.20;;
73266;SDS011;61495;53.400;7.608;2023-04-15T14:38:16;14.98;;;5.72;;
73266;SDS011;61495;53.400;7.608;2023-04-15T14:40:41;15.02;;;5.70;;
73266;SDS011;61495;53.400;7.608;2023-04-15T14:43:07;13.68;;;5.72;;
73266;SDS011;61495;53.400;7.608;2023-04-15T14:45:32;14.30;;;6.43;;
73266;SDS011;61495;53.400;7.608;2023-04-15T14:47:58;15.68;;;6.20;;
73266;SDS011;61495;53.400;7.608;2023-04-15T14:50:23;15.45;;;6.80;;
73266;SDS011;61495;53.400;7.608;2023-04-15T14:52:49;18.05;;;7.05;;
73266;SDS011;61495;53.400;7.608;2023-04-15T14:55:14;16.98;;;7.00;;
73266;SDS011;61495;53.400;7.608;2023-04-15T14:57:40;18.83;;;6.97;;
73266;SDS011;61495;53.400;7.608;2023-04-15T15:00:07;18.02;;;7.10;;
73266;SDS011;61495;53.400;7.608;2023-04-15T15:02:33;18.73;;;8.18;;
73266;SDS011;61495;53.400;7.608;2023-04-15T15:05:00;19.55;;;7.75;;
73266;SDS011;61495;53.400;7.608;2023-04-15T15:07:27;16.45;;;8.27;;
73266;SDS011;61495;53.400;7.608;2023-04-15T15:09:52;16.45;;;7.18;;
73266;SDS011;61495;53.400;7.608;2023-04-15T15:12:24;23.15;;;7.97;;
73266;SDS011;61495;53.400;7.608;2023-04-15T15:14:49;20.58;;;8.10;;